Time;durP1;ratioP1;P1;durP2;ratioP2;P2;SDS_P1;SDS_P2;PMS_P1;PMS_P2;Temp;Humidity;BMP_temperature;BMP_pressure;BME280_temperature;BME280_humidity;BME280_pressure;Samples;Min_cycle;Max_cycle;Signal;HPM_P1;HPM_P2
2023/05/20 00:01:10;;;;;;;;;;;;;;;20.25;65.35;97362.28;625723;226;62747;-63
2023/05/20 00:03:38;;;;;;;;;;;;;;;20.25;65.38;97364.95;627803;226;65019;-61
2023/05/20 00:06:06;;;;;;;;;;;;;;;20.26;65.28;97368.41;627790;226;64915;-61
2023/05/20 00:08:33;;;;;;;;;;;;;;;20.25;65.42;97367.61;627826;226;63005;-61
2023/05/20 00:11:01;;;;;;;;;;;;;;;20.25;65.00;97361.48;627749;226;64881;-61
2023/05/20 00:13:28;;;;;;;;;;;;;;;20.25;65.73;97364.15;627781;226;64514;-61
2023/05/20 00:15:56;;;;;;;;;;;;;;;20.25;65.75;97356.14;627798;226;64862;-61
2023/05/20 00:18:23;;;;;;;;;;;;;;;20.24;64.89;97347.30;627780;226;67207;-61
2023/05/20 00:20:53;;;;;;;;;;;;;;;20.24;65.32;97346.51;627795;226;65400;-61
2023/05/20 00:23:20;;;;;;;;;;;;;;;20.24;66.00;97341.17;627807;226;64860;-61
2023/05/20 00:25:47;;;;;;;;;;;;;;;20.24;65.56;97338.50;627784;226;64996;-61
2023/05/20 00:28:15;;;;;;;;;;;;;;;20.24;64.99;97346.51;627751;226;64964;-61
2023/05/20 00:30:43;;;;;;;;;;;;;;;20.24;66.12;97343.84;627803;226;65207;-61
2023/05/20 00:33:11;;;;;;;;;;;;;;;20.22;64.99;97346.78;625010;226;64535;-61
2023/05/20 00:35:38;;;;;;;;;;;;;;;20.22;65.20;97344.11;627597;226;66934;-61
2023/05/20 00:38:06;;;;;;;;;;;;;;;20.23;65.45;97351.05;627793;226;65055;-61
2023/05/20 00:40:33;;;;;;;;;;;;;;;20.22;65.27;97340.65;627769;226;66727;-61
2023/05/20 00:43:01;;;;;;;;;;;;;;;20.22;65.46;97341.45;627780;226;67777;-61
2023/05/20 00:45:28;;;;;;;;;;;;;;;20.23;66.11;97347.58;627742;226;64872;-61
2023/05/20 00:47:58;;;;;;;;;;;;;;;20.22;65.71;97354.79;627835;226;67380;-61
2023/05/20 00:50:26;;;;;;;;;;;;;;;20.22;66.17;97353.99;627749;226;64822;-61
2023/05/20 00:52:54;;;;;;;;;;;;;;;20.22;65.77;97344.11;627777;226;62458;-61
2023/05/20 00:55:22;;;;;;;;;;;;;;;20.22;65.90;97340.65;627763;226;67207;-61
2023/05/20 00:57:49;;;;;;;;;;;;;;;20.21;65.28;97342.48;627793;226;67114;-61
2023/05/20 01:00:17;;;;;;;;;;;;;;;20.22;65.46;97344.11;627832;226;65064;-61
2023/05/20 01:02:45;;;;;;;;;;;;;;;20.21;65.38;97339.82;627785;226;67022;-61
2023/05/20 01:05:12;;;;;;;;;;;;;;;20.22;67.22;97335.31;627782;226;67043;-61
2023/05/20 01:07:40;;;;;;;;;;;;;;;20.21;66.88;97336.35;627756;226;65072;-61
2023/05/20 01:10:08;;;;;;;;;;;;;;;20.20;65.78;97332.09;627728;226;64558;-61
2023/05/20 01:12:37;;;;;;;;;;;;;;;20.20;65.51;97334.75;627767;226;67013;-61
2023/05/20 01:15:09;;;;;;;;;;;;;;;20.18;65.67;97330.46;627454;225;62694;-61
2023/05/20 01:17:43;;;;;;;;;;;;;;;20.20;66.03;97324.88;627736;226;65039;-60
2023/05/20 01:20:13;;;;;;;;;;;;;;;20.19;65.75;97331.30;627773;226;64456;-61
2023/05/20 01:22:48;;;;;;;;;;;;;;;20.19;65.92;97325.95;627753;226;65176;-61
2023/05/20 01:25:16;;;;;;;;;;;;;;;20.18;65.74;97322.45;627618;225;64549;-61
2023/05/20 01:27:47;;;;;;;;;;;;;;;20.19;66.09;97323.28;627841;225;45514;-61
2023/05/20 01:30:15;;;;;;;;;;;;;;;20.18;65.28;97325.13;627754;226;64845;-61
2023/05/20 01:32:53;;;;;;;;;;;;;;;20.17;65.81;97339.55;627776;226;64726;-61
2023/05/20 01:35:23;;;;;;;;;;;;;;;20.17;65.43;97336.88;627630;225;67567;-60
2023/05/20 01:37:52;;;;;;;;;;;;;;;20.17;66.63;97336.88;627755;226;62557;-61
2023/05/20 01:40:20;;;;;;;;;;;;;;;20.16;65.59;97337.95;627750;226;67224;-61
2023/05/20 01:42:51;;;;;;;;;;;;;;;20.17;64.84;97347.55;627830;226;67009;-61
2023/05/20 01:45:17;;;;;;;;;;;;;;;20.17;65.82;97349.41;627716;226;62667;-60
2023/05/20 01:47:45;;;;;;;;;;;;;;;20.18;65.32;97348.34;627751;226;64905;-60
2023/05/20 01:50:13;;;;;;;;;;;;;;;20.19;67.29;97349.97;627766;226;66813;-60
2023/05/20 01:52:40;;;;;;;;;;;;;;;20.17;66.54;97338.74;627788;226;66073;-60
2023/05/20 01:55:08;;;;;;;;;;;;;;;20.16;65.75;97337.11;628524;225;64221;-60
2023/05/20 01:57:36;;;;;;;;;;;;;;;20.15;66.29;97330.98;628611;225;64513;-60
2023/05/20 02:00:05;;;;;;;;;;;;;;;20.16;66.72;97318.44;627154;226;65439;-62
2023/05/20 02:02:34;;;;;;;;;;;;;;;20.16;66.56;97321.94;626944;226;47398;-60
2023/05/20 02:05:01;;;;;;;;;;;;;;;20.15;66.75;97316.84;627143;226;64900;-60
2023/05/20 02:07:29;;;;;;;;;;;;;;;20.15;66.84;97320.30;627153;226;65026;-60
2023/05/20 02:09:56;;;;;;;;;;;;;;;20.14;66.00;97317.91;627126;226;67161;-60
2023/05/20 02:12:24;;;;;;;;;;;;;;;20.14;66.08;97313.38;627263;226;67743;-60
2023/05/20 02:14:52;;;;;;;;;;;;;;;20.14;65.76;97312.58;627773;226;63016;-60
2023/05/20 02:17:19;;;;;;;;;;;;;;;20.14;65.42;97305.37;627800;226;67164;-60
2023/05/20 02:19:47;;;;;;;;;;;;;;;20.15;65.93;97301.63;627805;226;66997;-60
2023/05/20 02:22:14;;;;;;;;;;;;;;;20.14;65.96;97305.37;627746;226;65080;-60
2023/05/20 02:24:43;;;;;;;;;;;;;;;20.15;66.03;97314.97;627749;226;67628;-61
2023/05/20 02:27:11;;;;;;;;;;;;;;;20.14;66.38;97313.38;627756;226;66864;-60
2023/05/20 02:29:39;;;;;;;;;;;;;;;20.15;66.62;97314.97;627748;226;62721;-60
2023/05/20 02:32:07;;;;;;;;;;;;;;;20.14;66.11;97317.91;627766;226;67021;-60
2023/05/20 02:34:35;;;;;;;;;;;;;;;20.13;66.24;97317.12;627763;226;67630;-60
2023/05/20 02:37:02;;;;;;;;;;;;;;;20.13;66.33;97314.45;627786;226;65024;-60
2023/05/20 02:39:30;;;;;;;;;;;;;;;20.12;66.04;97320.83;627776;226;65646;-60
2023/05/20 02:41:57;;;;;;;;;;;;;;;20.13;66.75;97321.62;627818;226;64114;-60
2023/05/20 02:44:25;;;;;;;;;;;;;;;20.12;66.31;97320.83;627778;226;63768;-60
2023/05/20 02:46:54;;;;;;;;;;;;;;;20.14;65.99;97325.92;627804;226;66773;-61
2023/05/20 02:49:23;;;;;;;;;;;;;;;20.12;66.16;97330.70;627746;226;65082;-60
2023/05/20 02:51:50;;;;;;;;;;;;;;;20.12;66.56;97334.17;627800;224;62586;-60
2023/05/20 02:54:18;;;;;;;;;;;;;;;20.12;66.52;97328.83;627768;226;66554;-60
2023/05/20 02:56:45;;;;;;;;;;;;;;;20.11;65.63;97332.57;627802;226;64678;-60
2023/05/20 02:59:13;;;;;;;;;;;;;;;20.11;65.96;97327.23;627838;226;64857;-60
2023/05/20 03:01:41;;;;;;;;;;;;;;;20.11;66.40;97329.91;627749;226;67658;-60
2023/05/20 03:04:08;;;;;;;;;;;;;;;20.11;65.61;97335.23;625755;226;67740;-60
2023/05/20 03:06:37;;;;;;;;;;;;;;;20.11;66.32;97329.91;627643;226;65841;-61
2023/05/20 03:09:04;;;;;;;;;;;;;;;20.11;67.00;97327.23;627740;226;64263;-60
2023/05/20 03:11:32;;;;;;;;;;;;;;;20.10;66.36;97322.94;627812;226;67014;-60
2023/05/20 03:14:00;;;;;;;;;;;;;;;20.11;66.62;97321.10;627681;226;62638;-60
2023/05/20 03:16:27;;;;;;;;;;;;;;;20.09;65.94;97316.01;627717;226;67231;-60
2023/05/20 03:18:55;;;;;;;;;;;;;;;20.11;66.14;97321.90;627662;226;66968;-60
2023/05/20 03:21:22;;;;;;;;;;;;;;;20.10;66.35;97317.61;627762;226;62945;-61
2023/05/20 03:23:50;;;;;;;;;;;;;;;20.11;66.27;97324.56;627795;225;67319;-60
2023/05/20 03:26:18;;;;;;;;;;;;;;;20.10;66.54;97317.61;627079;226;66917;-60
2023/05/20 03:28:46;;;;;;;;;;;;;;;20.09;65.99;97324.02;627602;226;62665;-60
2023/05/20 03:31:14;;;;;;;;;;;;;;;20.09;66.20;97332.02;616641;226;68438;-60
2023/05/20 03:33:44;;;;;;;;;;;;;;;20.09;66.10;97323.22;627563;226;64810;-60
2023/05/20 03:36:12;;;;;;;;;;;;;;;20.09;66.54;97323.22;627464;226;64497;-60
2023/05/20 03:38:39;;;;;;;;;;;;;;;20.09;66.20;97325.88;626894;226;65028;-60
2023/05/20 03:41:07;;;;;;;;;;;;;;;20.09;66.44;97328.55;627789;226;67155;-60
2023/05/20 03:43:34;;;;;;;;;;;;;;;20.08;67.27;97325.08;627766;226;65016;-60
2023/05/20 03:46:02;;;;;;;;;;;;;;;20.09;66.36;97333.89;627803;226;64598;-60
2023/05/20 03:48:30;;;;;;;;;;;;;;;20.08;65.67;97332.27;627793;226;67252;-60
2023/05/20 03:50:57;;;;;;;;;;;;;;;20.08;65.74;97332.27;627816;226;64877;-60
2023/05/20 03:53:25;;;;;;;;;;;;;;;20.07;66.29;97339.47;627808;226;67419;-60
2023/05/20 03:55:52;;;;;;;;;;;;;;;20.08;66.38;97333.09;627782;226;64640;-60
2023/05/20 03:58:21;;;;;;;;;;;;;;;20.08;66.16;97338.42;627759;226;63744;-60
2023/05/20 04:00:49;;;;;;;;;;;;;;;20.07;66.39;97339.47;627783;226;65617;-60
2023/05/20 04:03:17;;;;;;;;;;;;;;;20.07;65.92;97339.47;627818;226;66184;-60
2023/05/20 04:05:45;;;;;;;;;;;;;;;20.08;66.54;97340.27;627772;226;65503;-60
2023/05/20 04:08:14;;;;;;;;;;;;;;;20.07;66.16;97338.67;627733;225;45707;-59
2023/05/20 04:10:42;;;;;;;;;;;;;;;20.07;66.27;97341.34;627735;226;67080;-59
2023/05/20 04:13:11;;;;;;;;;;;;;;;20.07;66.95;97341.34;625858;226;48453;-59
2023/05/20 04:15:40;;;;;;;;;;;;;;;20.05;66.31;97341.61;627150;226;67766;-59
2023/05/20 04:18:07;;;;;;;;;;;;;;;20.06;65.72;97345.88;627513;226;64498;-59
2023/05/20 04:20:35;;;;;;;;;;;;;;;20.06;66.06;97350.41;627802;226;64995;-59
2023/05/20 04:23:02;;;;;;;;;;;;;;;20.06;65.84;97342.41;627758;226;64687;-59
2023/05/20 04:25:30;;;;;;;;;;;;;;;20.06;66.21;97334.41;627768;226;64621;-60
2023/05/20 04:27:59;;;;;;;;;;;;;;;20.05;65.88;97325.61;627733;226;65754;-59
2023/05/20 04:30:27;;;;;;;;;;;;;;;20.06;65.66;97321.06;627821;226;67408;-59
2023/05/20 04:32:56;;;;;;;;;;;;;;;20.05;65.53;97322.11;627776;226;67214;-59
2023/05/20 04:35:24;;;;;;;;;;;;;;;20.04;65.44;97321.31;627739;226;65897;-60
2023/05/20 04:37:54;;;;;;;;;;;;;;;20.06;66.26;97321.06;627772;226;67594;-59
2023/05/20 04:40:22;;;;;;;;;;;;;;;20.04;67.16;97318.64;627734;226;64495;-59
2023/05/20 04:42:50;;;;;;;;;;;;;;;20.04;65.80;97321.31;627772;226;63800;-59
2023/05/20 04:45:19;;;;;;;;;;;;;;;20.04;66.81;97313.30;627797;226;65503;-60
2023/05/20 04:47:48;;;;;;;;;;;;;;;20.05;66.68;97324.77;627663;226;67936;-62
2023/05/20 04:50:15;;;;;;;;;;;;;;;20.04;67.03;97326.64;627759;226;62724;-61
2023/05/20 04:52:45;;;;;;;;;;;;;;;20.03;66.53;97334.92;627762;226;48293;-61
2023/05/20 04:55:14;;;;;;;;;;;;;;;20.04;65.92;97339.19;622570;226;66051;-61
2023/05/20 04:57:42;;;;;;;;;;;;;;;20.03;65.81;97342.92;627829;226;63024;-61
2023/05/20 05:00:11;;;;;;;;;;;;;;;20.03;66.34;97343.72;627758;226;65759;-61
2023/05/20 05:02:39;;;;;;;;;;;;;;;20.03;65.90;97348.27;622670;226;65764;-61
2023/05/20 05:05:07;;;;;;;;;;;;;;;20.03;65.92;97337.59;627776;226;65039;-63
2023/05/20 05:07:34;;;;;;;;;;;;;;;20.02;65.35;97347.43;627780;226;67276;-61
2023/05/20 05:10:02;;;;;;;;;;;;;;;20.03;66.72;97335.72;627746;226;66804;-61
2023/05/20 05:12:30;;;;;;;;;;;;;;;20.02;66.23;97339.43;627729;226;64902;-61
2023/05/20 05:14:58;;;;;;;;;;;;;;;20.02;65.49;97336.76;627143;226;65810;-61
2023/05/20 05:17:27;;;;;;;;;;;;;;;20.02;65.79;97344.77;627137;226;67784;-61
2023/05/20 05:19:56;;;;;;;;;;;;;;;20.03;66.19;97348.27;627134;226;65782;-63
2023/05/20 05:22:24;;;;;;;;;;;;;;;20.02;67.18;97350.10;627137;226;67801;-61
2023/05/20 05:24:51;;;;;;;;;;;;;;;20.02;66.81;97358.10;627167;226;64802;-61
2023/05/20 05:27:19;;;;;;;;;;;;;;;20.02;65.61;97358.10;627094;226;65095;-61
2023/05/20 05:29:47;;;;;;;;;;;;;;;20.00;66.49;97357.58;627086;226;64710;-60
2023/05/20 05:32:14;;;;;;;;;;;;;;;20.00;66.43;97357.58;627100;225;67015;-60
2023/05/20 05:34:42;;;;;;;;;;;;;;;20.01;66.86;97355.70;627141;226;62867;-60
2023/05/20 05:37:09;;;;;;;;;;;;;;;20.01;66.74;97353.84;625178;226;64478;-60
2023/05/20 05:39:37;;;;;;;;;;;;;;;20.00;66.67;97354.91;621281;226;68118;-60
2023/05/20 05:42:06;;;;;;;;;;;;;;;20.00;66.83;97346.91;627044;226;66065;-62
2023/05/20 05:44:36;;;;;;;;;;;;;;;20.00;66.33;97354.91;627118;226;65285;-60
2023/05/20 05:47:05;;;;;;;;;;;;;;;20.01;66.59;97350.38;627098;226;67633;-61
2023/05/20 05:49:33;;;;;;;;;;;;;;;19.99;66.43;97347.95;627151;226;65815;-61
2023/05/20 05:52:01;;;;;;;;;;;;;;;19.99;66.35;97350.62;627164;226;67159;-61
2023/05/20 05:54:28;;;;;;;;;;;;;;;19.99;66.26;97353.28;627057;226;64940;-61
2023/05/20 05:56:56;;;;;;;;;;;;;;;20.00;66.58;97352.24;627116;226;63854;-61
2023/05/20 05:59:25;;;;;;;;;;;;;;;19.99;66.41;97342.61;627156;226;64935;-61
2023/05/20 06:01:52;;;;;;;;;;;;;;;19.98;66.87;97341.02;627086;226;67429;-61
2023/05/20 06:04:20;;;;;;;;;;;;;;;19.98;67.05;97341.02;627137;226;62532;-61
2023/05/20 06:06:48;;;;;;;;;;;;;;;19.98;66.51;97341.02;627084;226;67609;-61
2023/05/20 06:09:17;;;;;;;;;;;;;;;19.96;66.64;97335.92;627051;226;67046;-60
2023/05/20 06:11:46;;;;;;;;;;;;;;;19.98;66.13;97349.02;627078;225;64911;-61
2023/05/20 06:14:14;;;;;;;;;;;;;;;19.97;64.78;97339.42;627063;226;65024;-61
2023/05/20 06:16:41;;;;;;;;;;;;;;;19.99;65.59;97347.95;627141;226;67136;-60
2023/05/20 06:19:09;;;;;;;;;;;;;;;19.98;65.68;97341.02;624898;226;65002;-60
2023/05/20 06:21:37;;;;;;;;;;;;;;;19.98;65.50;97335.68;626432;226;65791;-61
2023/05/20 06:24:05;;;;;;;;;;;;;;;19.99;65.83;97329.27;626539;226;66919;-60
2023/05/20 06:26:36;;;;;;;;;;;;;;;19.99;66.02;97326.61;626886;226;43859;-60
2023/05/20 06:29:03;;;;;;;;;;;;;;;19.99;66.03;97321.27;627158;226;67105;-60
2023/05/20 06:31:31;;;;;;;;;;;;;;;20.00;66.45;97328.23;627034;226;67359;-60
2023/05/20 06:34:00;;;;;;;;;;;;;;;20.01;67.20;97329.03;626889;226;65749;-58
2023/05/20 06:36:28;;;;;;;;;;;;;;;20.00;66.21;97330.91;626859;226;69311;-59
2023/05/20 06:38:56;;;;;;;;;;;;;;;20.01;66.76;97323.70;627108;225;65707;-58
2023/05/20 06:41:25;;;;;;;;;;;;;;;20.00;67.55;97325.56;626980;226;65750;-58
2023/05/20 06:43:53;;;;;;;;;;;;;;;20.00;66.88;97317.56;627069;226;67352;-58
2023/05/20 06:46:39;;;;;;;;;;;;;;;19.99;66.25;97315.94;627126;226;41652;-58
2023/05/20 06:49:08;;;;;;;;;;;;;;;20.01;66.33;97313.02;626894;226;43876;-58
2023/05/20 06:51:36;;;;;;;;;;;;;;;20.00;67.37;97320.23;627005;226;66642;-59
2023/05/20 06:54:03;;;;;;;;;;;;;;;20.01;67.61;97318.36;627017;226;65456;-58
2023/05/20 06:56:31;;;;;;;;;;;;;;;20.00;66.63;97312.23;626980;226;64933;-59
2023/05/20 06:58:59;;;;;;;;;;;;;;;20.01;67.25;97311.16;627028;226;64293;-58
2023/05/20 07:01:27;;;;;;;;;;;;;;;19.99;66.46;97315.94;627037;226;67723;-59
2023/05/20 07:03:55;;;;;;;;;;;;;;;20.00;66.86;97301.55;627083;226;62488;-59
2023/05/20 07:06:24;;;;;;;;;;;;;;;20.00;66.63;97298.06;626910;226;67632;-58
2023/05/20 07:08:51;;;;;;;;;;;;;;;20.00;66.71;97288.22;627103;225;64696;-58
2023/05/20 07:11:20;;;;;;;;;;;;;;;20.01;66.38;97295.15;626965;226;65514;-58
2023/05/20 07:13:47;;;;;;;;;;;;;;;20.02;67.37;97294.08;627469;226;66941;-58
2023/05/20 07:16:15;;;;;;;;;;;;;;;20.02;67.10;97293.28;627572;226;66828;-59
2023/05/20 07:18:44;;;;;;;;;;;;;;;20.01;67.33;97294.35;627645;226;47038;-59
2023/05/20 07:21:12;;;;;;;;;;;;;;;20.01;67.30;97302.35;627626;226;67354;-59
2023/05/20 07:23:57;;;;;;;;;;;;;;;20.01;67.33;97303.16;627792;225;41708;-58
2023/05/20 07:26:25;;;;;;;;;;;;;;;20.02;67.83;97301.28;627690;226;65721;-58
2023/05/20 07:28:53;;;;;;;;;;;;;;;20.01;67.73;97303.16;627773;226;67105;-58
2023/05/20 07:31:20;;;;;;;;;;;;;;;20.00;67.01;97301.55;627700;226;64932;-57
2023/05/20 07:33:48;;;;;;;;;;;;;;;20.01;67.11;97297.81;627755;226;63652;-58
2023/05/20 07:36:16;;;;;;;;;;;;;;;20.00;67.36;97296.22;627847;225;67214;-58
2023/05/20 07:38:45;;;;;;;;;;;;;;;20.01;67.35;97303.16;627774;225;45176;-58
2023/05/20 07:41:13;;;;;;;;;;;;;;;20.01;67.62;97291.68;627806;225;65379;-57
2023/05/20 07:43:41;;;;;;;;;;;;;;;20.02;67.23;97299.41;627766;225;65820;-58
2023/05/20 07:46:08;;;;;;;;;;;;;;;20.01;67.64;97294.35;627641;226;65335;-57
2023/05/20 07:48:36;;;;;;;;;;;;;;;20.01;67.42;97297.81;627664;226;65049;-58
2023/05/20 07:51:05;;;;;;;;;;;;;;;20.01;67.31;97291.68;627774;226;67696;-58
2023/05/20 07:53:33;;;;;;;;;;;;;;;20.01;68.06;97292.48;627571;226;67629;-58
2023/05/20 07:56:01;;;;;;;;;;;;;;;20.02;67.59;97288.73;627718;226;65738;-58
2023/05/20 07:58:30;;;;;;;;;;;;;;;20.03;67.72;97289.57;627726;226;67170;-58
2023/05/20 08:00:58;;;;;;;;;;;;;;;20.02;66.25;97286.08;627700;226;64862;-57
2023/05/20 08:03:26;;;;;;;;;;;;;;;20.02;66.39;97279.94;627733;225;65624;-58
2023/05/20 08:05:58;;;;;;;;;;;;;;;20.02;66.75;97267.40;627397;225;48009;-58
2023/05/20 08:08:27;;;;;;;;;;;;;;;20.01;66.99;97268.47;627663;226;67492;-58
2023/05/20 08:10:57;;;;;;;;;;;;;;;20.02;68.03;97272.73;627613;226;42341;-58
2023/05/20 08:13:25;;;;;;;;;;;;;;;20.02;67.86;97270.06;627628;225;65467;-58
2023/05/20 08:15:53;;;;;;;;;;;;;;;20.00;66.98;97269.55;627780;226;67592;-59
2023/05/20 08:18:23;;;;;;;;;;;;;;;20.01;67.24;97281.81;627792;226;44993;-58
2023/05/20 08:20:50;;;;;;;;;;;;;;;20.00;66.82;97282.88;627631;225;67216;-58
2023/05/20 08:23:18;;;;;;;;;;;;;;;20.01;67.29;97281.81;627643;226;64551;-58
2023/05/20 08:25:47;;;;;;;;;;;;;;;20.02;67.19;97285.27;627775;225;65002;-58
2023/05/20 08:28:14;;;;;;;;;;;;;;;20.02;67.41;97285.27;627576;226;65817;-58
2023/05/20 08:30:42;;;;;;;;;;;;;;;20.02;67.78;97280.73;627674;226;67019;-58
2023/05/20 08:33:11;;;;;;;;;;;;;;;20.02;67.98;97278.07;627660;226;65005;-58
2023/05/20 08:35:39;;;;;;;;;;;;;;;20.02;67.01;97280.73;627620;226;67293;-59
2023/05/20 08:38:07;;;;;;;;;;;;;;;20.02;67.15;97282.61;627650;226;64635;-58
2023/05/20 08:40:35;;;;;;;;;;;;;;;20.03;66.54;97281.56;627658;226;65100;-58
2023/05/20 08:43:03;;;;;;;;;;;;;;;20.02;66.55;97278.07;627708;225;64760;-59
2023/05/20 08:45:32;;;;;;;;;;;;;;;20.02;66.75;97283.41;627514;226;67062;-58
2023/05/20 08:48:04;;;;;;;;;;;;;;;20.01;67.83;97281.81;627589;225;46022;-58
2023/05/20 08:50:31;;;;;;;;;;;;;;;20.02;68.08;97287.94;627689;226;67198;-58
2023/05/20 08:52:59;;;;;;;;;;;;;;;20.02;68.66;97296.74;627780;225;66683;-58
2023/05/20 08:55:28;;;;;;;;;;;;;;;20.01;68.51;97289.81;627635;226;62663;-59
2023/05/20 08:57:56;;;;;;;;;;;;;;;20.01;68.55;97289.02;627547;225;67130;-59
2023/05/20 09:00:27;;;;;;;;;;;;;;;20.01;68.79;97292.48;627716;226;67506;-59
2023/05/20 09:02:53;;;;;;;;;;;;;;;20.01;68.37;97295.15;627688;225;65011;-58
2023/05/20 09:05:21;;;;;;;;;;;;;;;20.01;68.59;97291.68;627710;226;64512;-58
2023/05/20 09:07:49;;;;;;;;;;;;;;;20.00;68.24;97296.22;627773;226;64939;-58
2023/05/20 09:10:16;;;;;;;;;;;;;;;20.00;67.98;97298.89;627666;224;65120;-58
2023/05/20 09:12:44;;;;;;;;;;;;;;;20.00;68.11;97298.89;627535;226;68348;-58
2023/05/20 09:15:11;;;;;;;;;;;;;;;20.01;68.14;97300.48;627718;226;66846;-58
2023/05/20 09:17:39;;;;;;;;;;;;;;;20.01;68.32;97299.69;627643;226;65992;-58
2023/05/20 09:20:10;;;;;;;;;;;;;;;20.00;68.23;97298.89;627545;226;66766;-59
2023/05/20 09:22:39;;;;;;;;;;;;;;;20.01;67.80;97294.35;627745;226;67043;-59
2023/05/20 09:25:07;;;;;;;;;;;;;;;20.01;68.37;97284.48;627616;226;62749;-59
2023/05/20 09:27:36;;;;;;;;;;;;;;;20.01;68.16;97289.02;627546;226;67397;-58
2023/05/20 09:30:05;;;;;;;;;;;;;;;20.01;67.80;97297.81;627617;226;64760;-58
2023/05/20 09:32:33;;;;;;;;;;;;;;;20.01;68.85;97295.15;627480;226;65819;-60
2023/05/20 09:35:03;;;;;;;;;;;;;;;20.02;68.29;97312.75;627741;226;67177;-60
2023/05/20 09:37:30;;;;;;;;;;;;;;;20.14;62.77;97304.57;627618;226;64821;-61
2023/05/20 09:39:59;;;;;;;;;;;;;;;20.31;62.23;97307.06;627563;226;62779;-60
2023/05/20 09:42:30;;;;;;;;;;;;;;;20.46;62.69;97298.31;627574;226;67164;-63
2023/05/20 09:44:58;;;;;;;;;;;;;;;20.54;63.01;97306.69;627478;226;64943;-60
2023/05/20 09:47:26;;;;;;;;;;;;;;;20.55;62.14;97300.27;627575;226;65068;-58
2023/05/20 09:49:54;;;;;;;;;;;;;;;20.53;66.04;97299.72;627654;226;64939;-59
2023/05/20 09:52:22;;;;;;;;;;;;;;;20.51;66.25;97306.34;627710;226;67076;-58
2023/05/20 09:54:50;;;;;;;;;;;;;;;20.45;66.46;97292.17;627570;226;65058;-58
2023/05/20 09:57:18;;;;;;;;;;;;;;;20.45;66.99;97291.38;627679;226;67225;-59
2023/05/20 09:59:46;;;;;;;;;;;;;;;20.42;66.13;97290.03;627662;226;64839;-59
2023/05/20 10:02:14;;;;;;;;;;;;;;;20.42;65.21;97282.02;627793;226;62939;-59
2023/05/20 10:04:43;;;;;;;;;;;;;;;20.44;66.94;97289.78;627746;226;67083;-58
2023/05/20 10:07:12;;;;;;;;;;;;;;;20.42;65.50;97292.70;627646;226;64629;-59
2023/05/20 10:09:47;;;;;;;;;;;;;;;20.43;65.91;97288.16;627480;225;62924;-59
2023/05/20 10:12:16;;;;;;;;;;;;;;;20.42;66.01;97290.03;627442;225;66888;-58
2023/05/20 10:14:45;;;;;;;;;;;;;;;20.43;67.05;97282.82;622731;226;67368;-58
2023/05/20 10:17:14;;;;;;;;;;;;;;;20.43;66.69;97286.28;627769;226;62922;-60
2023/05/20 10:19:42;;;;;;;;;;;;;;;20.44;65.99;97284.45;627528;225;64839;-60
2023/05/20 10:22:13;;;;;;;;;;;;;;;20.44;66.43;97287.91;627761;226;64738;-59
2023/05/20 10:24:42;;;;;;;;;;;;;;;20.43;65.54;97286.28;627751;226;63078;-58
2023/05/20 10:27:13;;;;;;;;;;;;;;;20.43;65.95;97286.28;627749;226;67217;-59
2023/05/20 10:29:47;;;;;;;;;;;;;;;20.43;65.38;97283.61;627496;226;67021;-58
2023/05/20 10:32:26;;;;;;;;;;;;;;;20.45;67.73;97284.17;627695;225;62888;-59
2023/05/20 10:34:55;;;;;;;;;;;;;;;20.45;67.17;97276.16;627471;225;66755;-59
2023/05/20 10:37:30;;;;;;;;;;;;;;;20.45;65.82;97278.83;627614;226;66950;-59
2023/05/20 10:40:03;;;;;;;;;;;;;;;20.45;66.32;97280.70;627698;226;44791;-59
2023/05/20 10:42:31;;;;;;;;;;;;;;;20.45;66.73;97267.35;627623;226;65225;-59
2023/05/20 10:44:58;;;;;;;;;;;;;;;20.46;67.53;97266.28;627578;226;64912;-59
2023/05/20 10:47:26;;;;;;;;;;;;;;;20.45;67.27;97265.48;627955;225;62738;-59
2023/05/20 10:49:53;;;;;;;;;;;;;;;20.43;65.73;97267.60;627570;226;67056;-58
2023/05/20 10:52:21;;;;;;;;;;;;;;;20.44;65.70;97263.88;627741;226;67014;-59
2023/05/20 10:54:56;;;;;;;;;;;;;;;20.44;66.13;97263.88;627613;226;66949;-59
2023/05/20 10:57:25;;;;;;;;;;;;;;;20.44;65.53;97253.20;627731;226;66729;-59
2023/05/20 10:59:53;;;;;;;;;;;;;;;20.45;67.01;97254.80;627800;226;64392;-59
2023/05/20 11:02:27;;;;;;;;;;;;;;;20.45;67.30;97254.80;627789;226;62822;-58
2023/05/20 11:04:57;;;;;;;;;;;;;;;20.44;65.24;97252.41;627874;225;66794;-58
2023/05/20 11:07:28;;;;;;;;;;;;;;;20.45;66.41;97244.13;627780;225;64702;-59
2023/05/20 11:09:56;;;;;;;;;;;;;;;20.44;66.50;97245.20;627594;226;65172;-59
2023/05/20 11:12:25;;;;;;;;;;;;;;;20.45;66.15;97246.00;627728;226;66970;-58
2023/05/20 11:14:52;;;;;;;;;;;;;;;20.44;66.31;97239.86;627726;226;66687;-58
2023/05/20 11:17:20;;;;;;;;;;;;;;;20.44;65.84;97239.86;627758;226;65105;-59
2023/05/20 11:19:47;;;;;;;;;;;;;;;20.45;66.04;97237.98;627647;226;67007;-59
2023/05/20 11:22:15;;;;;;;;;;;;;;;20.44;64.85;97236.39;627783;226;66729;-58
2023/05/20 11:24:42;;;;;;;;;;;;;;;20.44;65.65;97223.84;627739;225;62778;-59
2023/05/20 11:27:10;;;;;;;;;;;;;;;20.45;65.85;97221.97;627561;226;67432;-58
2023/05/20 11:29:39;;;;;;;;;;;;;;;20.44;65.23;97215.03;627706;225;67310;-59
2023/05/20 11:32:07;;;;;;;;;;;;;;;20.44;64.75;97215.84;627581;226;62890;-58
2023/05/20 11:34:36;;;;;;;;;;;;;;;20.45;66.22;97216.63;627458;226;67267;-59
2023/05/20 11:37:05;;;;;;;;;;;;;;;20.45;65.89;97211.29;627524;226;64539;-58
2023/05/20 11:39:33;;;;;;;;;;;;;;;20.45;65.16;97208.62;627599;226;70909;-58
2023/05/20 11:42:00;;;;;;;;;;;;;;;20.44;65.34;97207.83;627561;226;67242;-58
2023/05/20 11:44:27;;;;;;;;;;;;;;;20.46;65.48;97204.88;627605;225;66929;-59
2023/05/20 11:46:56;;;;;;;;;;;;;;;20.47;66.07;97204.63;627669;226;64911;-59
2023/05/20 11:49:24;;;;;;;;;;;;;;;20.46;65.96;97202.20;627569;225;64572;-58
2023/05/20 11:51:51;;;;;;;;;;;;;;;20.45;65.20;97198.73;627929;225;67023;-59
2023/05/20 11:54:20;;;;;;;;;;;;;;;20.46;65.62;97196.87;627577;226;65033;-59
2023/05/20 11:56:48;;;;;;;;;;;;;;;20.46;65.94;97197.70;627765;226;67426;-59
2023/05/20 11:59:15;;;;;;;;;;;;;;;20.47;66.99;97188.61;627745;225;67028;-59
2023/05/20 12:01:43;;;;;;;;;;;;;;;20.46;66.22;97180.85;627769;226;64841;-58
2023/05/20 12:04:17;;;;;;;;;;;;;;;20.46;66.76;97176.34;627701;226;67285;-58
2023/05/20 12:06:41;;;;;;;;;;;;;;;20.47;67.28;97175.27;627493;226;64868;-59
2023/05/20 12:09:09;;;;;;;;;;;;;;;20.47;66.10;97172.59;627700;226;65079;-59
2023/05/20 12:11:39;;;;;;;;;;;;;;;20.48;67.33;97162.71;627615;226;67172;-59
2023/05/20 12:14:07;;;;;;;;;;;;;;;20.47;66.36;97153.11;627236;225;67123;-59
2023/05/20 12:16:35;;;;;;;;;;;;;;;20.46;65.97;97162.99;627038;226;64992;-59
2023/05/20 12:19:03;;;;;;;;;;;;;;;20.46;65.84;97157.66;627180;225;65021;-59
2023/05/20 12:21:30;;;;;;;;;;;;;;;20.47;66.45;97153.91;626951;226;64923;-59
2023/05/20 12:24:04;;;;;;;;;;;;;;;20.47;66.91;97145.90;627052;226;65192;-59
2023/05/20 12:26:30;;;;;;;;;;;;;;;20.46;65.00;97146.97;627019;226;64807;-60
2023/05/20 12:28:57;;;;;;;;;;;;;;;20.48;66.47;97141.36;627198;225;64850;-60
2023/05/20 12:31:25;;;;;;;;;;;;;;;20.48;67.35;97144.82;627094;226;62833;-60
2023/05/20 12:33:52;;;;;;;;;;;;;;;20.49;67.66;97135.77;627183;225;64998;-59
2023/05/20 12:36:20;;;;;;;;;;;;;;;20.48;65.96;97130.67;627036;226;64563;-60
2023/05/20 12:38:47;;;;;;;;;;;;;;;20.50;69.67;97124.00;626999;226;63811;-60
2023/05/20 12:41:15;;;;;;;;;;;;;;;20.51;69.95;97122.14;626963;226;67221;-60
2023/05/20 12:43:42;;;;;;;;;;;;;;;20.47;65.67;97123.74;627098;225;67351;-60
2023/05/20 12:46:10;;;;;;;;;;;;;;;20.48;67.07;97125.34;627002;226;64928;-60
2023/05/20 12:48:37;;;;;;;;;;;;;;;20.48;67.68;97114.66;626975;226;67185;-60
2023/05/20 12:51:05;;;;;;;;;;;;;;;20.50;69.45;97121.34;626951;226;67313;-59
2023/05/20 12:53:33;;;;;;;;;;;;;;;20.48;67.45;97110.11;627080;226;64897;-59